Time;durP1;ratioP1;P1;durP2;ratioP2;P2;SDS_P1;SDS_P2;PMS_P1;PMS_P2;Temp;Humidity;BMP_temperature;BMP_pressure;BME280_temperature;BME280_humidity;BME280_pressure;Samples;Min_cycle;Max_cycle;Signal;HPM_P1;HPM_P2
2021/10/15 00:00:16;;;;;;;7.72;3.72;;;;;;;11.10;71.22;100512.81;2094234;83;27778;-64
2021/10/15 00:03:24;;;;;;;5.80;3.90;;;;;;;11.12;71.16;100517.63;2167031;81;27895;-64
2021/10/15 00:06:29;;;;;;;6.62;3.90;;;;;;;11.14;71.23;100515.75;2156781;81;31037;-64
2021/10/15 00:09:31;;;;;;;7.92;4.28;;;;;;;11.16;71.19;100507.61;2161562;81;32989;-64
2021/10/15 00:12:36;;;;;;;7.35;3.90;;;;;;;11.16;71.22;100511.19;2085968;83;30669;-65
2021/10/15 00:15:41;;;;;;;7.60;4.10;;;;;;;11.17;71.09;100511.55;2094363;83;27783;-65
2021/10/15 00:18:47;;;;;;;9.43;4.15;;;;;;;11.18;71.15;100508.41;2077833;84;29708;-65
2021/10/15 00:21:53;;;;;;;7.53;4.05;;;;;;;11.19;71.09;100512.34;2100250;83;31015;-65
2021/10/15 00:24:59;;;;;;;5.97;4.80;;;;;;;11.22;71.04;100507.33;2085529;83;34646;-65
2021/10/15 00:28:04;;;;;;;5.58;4.10;;;;;;;11.23;71.13;100504.55;2131956;81;29337;-66
2021/10/15 00:31:10;;;;;;;7.05;4.50;;;;;;;11.23;71.08;100494.31;2141486;81;27729;-64
2021/10/15 00:34:16;;;;;;;7.40;4.70;;;;;;;11.24;71.00;100493.38;2166819;81;28661;-64
2021/10/15 00:37:22;;;;;;;7.03;4.58;;;;;;;11.25;71.05;100486.58;2140079;81;31071;-65
2021/10/15 00:40:26;;;;;;;7.47;3.95;;;;;;;11.27;71.05;100488.32;2112670;82;33668;-64
2021/10/15 00:43:32;;;;;;;9.35;4.03;;;;;;;11.27;70.99;100483.81;2105559;83;29425;-64
2021/10/15 00:46:38;;;;;;;6.45;4.20;;;;;;;11.27;70.99;100478.45;2087940;83;27829;-64
2021/10/15 00:49:44;;;;;;;5.70;4.37;;;;;;;11.30;70.96;100477.45;2089931;83;29513;-64
2021/10/15 00:52:48;;;;;;;8.30;5.17;;;;;;;11.30;70.90;100474.77;2115254;83;31025;-65
2021/10/15 00:55:52;;;;;;;7.30;5.83;;;;;;;11.33;71.01;100478.64;2072122;84;33816;-64
2021/10/15 00:58:53;;;;;;;8.63;6.00;;;;;;;11.33;70.88;100475.95;2069853;84;30233;-65
2021/10/15 01:01:58;;;;;;;7.70;5.25;;;;;;;11.34;70.90;100470.95;2119814;82;27633;-65
2021/10/15 01:05:04;;;;;;;8.88;5.85;;;;;;;11.37;70.86;100477.52;2076524;84;29548;-65
2021/10/15 01:08:11;;;;;;;7.35;5.42;;;;;;;11.38;70.87;100476.12;2043409;84;31844;-66
2021/10/15 01:11:19;;;;;;;6.92;5.17;;;;;;;11.39;70.76;100475.62;2060878;84;33765;-64
2021/10/15 01:14:24;;;;;;;7.62;5.58;;;;;;;11.39;70.73;100468.47;2058108;84;29539;-65
2021/10/15 01:17:26;;;;;;;7.53;5.12;;;;;;;11.40;70.78;100465.30;2111669;83;27739;-66
2021/10/15 01:20:32;;;;;;;8.80;5.00;;;;;;;11.40;70.71;100466.19;2121868;82;28897;-65
2021/10/15 01:23:38;;;;;;;7.50;5.00;;;;;;;11.42;70.71;100464.75;2154166;81;31906;-65
2021/10/15 01:26:44;;;;;;;6.78;5.28;;;;;;;11.44;70.65;100462.86;2166717;81;33035;-65
2021/10/15 01:29:49;;;;;;;6.37;5.10;;;;;;;11.45;70.58;100465.06;2166347;81;30203;-64
2021/10/15 01:32:55;;;;;;;7.08;5.25;;;;;;;11.44;70.54;100457.50;2144250;81;27723;-65
2021/10/15 01:35:57;;;;;;;8.20;5.53;;;;;;;11.45;70.41;100454.33;2146644;81;28675;-64
2021/10/15 01:38:59;;;;;;;7.80;5.28;;;;;;;11.46;70.61;100452.92;2164715;81;31515;-65
2021/10/15 01:42:05;;;;;;;8.18;6.05;;;;;;;11.47;70.46;100453.78;2170479;81;34345;-64
2021/10/15 01:45:11;;;;;;;8.45;5.97;;;;;;;11.47;70.51;100451.98;2167977;81;29171;-65
2021/10/15 01:48:17;;;;;;;7.30;5.75;;;;;;;11.50;70.41;100449.61;2132417;82;27866;-64
2021/10/15 01:51:22;;;;;;;6.75;5.05;;;;;;;11.49;70.33;100454.57;2122440;82;28210;-66
2021/10/15 01:54:26;;;;;;;5.55;4.95;;;;;;;11.45;70.43;100448.50;2100804;83;31862;-65
2021/10/15 01:57:31;;;;;;;6.12;5.03;;;;;;;11.47;70.53;100448.41;2111813;82;33818;-66
2021/10/15 02:00:36;;;;;;;;;;;;;;;11.47;70.62;100441.25;2092305;83;29342;-65
2021/10/15 02:03:40;;;;;;;11.83;5.72;;;;;;;11.46;70.53;100441.31;2085772;83;27761;-66
2021/10/15 02:06:46;;;;;;;9.50;7.28;;;;;;;11.45;70.65;100439.57;2096255;83;32899;-65
2021/10/15 02:09:52;;;;;;;8.65;6.17;;;;;;;11.46;70.63;100437.28;2084038;83;31047;-66
2021/10/15 02:12:54;;;;;;;8.93;7.03;;;;;;;11.45;70.67;100443.14;2055955;84;33721;-65
2021/10/15 02:16:00;;;;;;;11.63;6.87;;;;;;;11.45;70.64;100440.45;2115729;82;29754;-66
2021/10/15 02:19:05;;;;;;;8.63;6.90;;;;;;;11.47;70.58;100443.05;2145682;81;27784;-65
2021/10/15 02:22:11;;;;;;;9.80;8.05;;;;;;;11.47;70.62;100436.34;2104847;83;29492;-66
2021/10/15 02:25:17;;;;;;;10.75;7.17;;;;;;;11.47;70.64;100443.94;2097941;83;31937;-65
2021/10/15 02:28:23;;;;;;;11.85;7.50;;;;;;;11.48;70.70;100433.60;2088392;83;33798;-67
2021/10/15 02:31:28;;;;;;;10.25;7.90;;;;;;;11.50;70.68;100431.67;2097606;83;29345;-65
2021/10/15 02:34:34;;;;;;;10.08;8.33;;;;;;;11.50;70.61;100435.70;2123374;82;28019;-65
2021/10/15 02:37:40;;;;;;;10.55;8.18;;;;;;;11.52;70.54;100432.95;2022477;85;28684;-64
2021/10/15 02:40:46;;;;;;;11.15;7.92;;;;;;;11.49;70.55;100423.27;2094633;82;31066;-65
2021/10/15 02:43:48;;;;;;;11.53;8.75;;;;;;;11.49;70.58;100427.75;2085064;82;33168;-64
2021/10/15 02:46:54;;;;;;;10.65;8.38;;;;;;;11.48;70.54;100424.67;2101280;82;29405;-65
2021/10/15 02:50:00;;;;;;;11.85;8.30;;;;;;;11.46;70.63;100426.09;2103602;82;27887;-64
2021/10/15 02:53:05;;;;;;;11.83;8.53;;;;;;;11.47;70.63;100421.59;2093524;82;28707;-65
2021/10/15 02:56:09;;;;;;;12.30;9.25;;;;;;;11.47;70.68;100421.13;2100940;83;31899;-64
2021/10/15 02:59:14;;;;;;;10.70;8.85;;;;;;;11.46;70.63;100420.73;2096501;82;33053;-64
2021/10/15 03:02:19;;;;;;;14.40;9.13;;;;;;;11.45;70.55;100414.97;2146072;81;29402;-64
2021/10/15 03:05:22;;;;;;;12.53;8.90;;;;;;;11.43;70.54;100414.64;2127305;82;27728;-65
2021/10/15 03:08:27;;;;;;;11.75;9.00;;;;;;;11.39;70.55;100409.45;2129478;81;28698;-64
2021/10/15 03:11:33;;;;;;;11.08;8.98;;;;;;;11.37;70.59;100410.00;2127633;81;31056;-64
2021/10/15 03:14:39;;;;;;;10.03;8.03;;;;;;;11.33;70.54;100407.08;2127347;81;33001;-64
2021/10/15 03:17:43;;;;;;;13.13;9.95;;;;;;;11.32;70.67;100408.51;2106424;82;29374;-64
2021/10/15 03:20:51;;;;;;;14.45;9.15;;;;;;;11.30;70.68;100405.03;2092526;83;27786;-64
2021/10/15 03:23:53;;;;;;;13.05;9.53;;;;;;;11.29;70.67;100402.80;2117095;82;29551;-66
2021/10/15 03:26:58;;;;;;;15.10;9.98;;;;;;;11.28;70.71;100400.22;2123549;81;32211;-65
2021/10/15 03:30:03;;;;;;;13.65;9.93;;;;;;;11.28;70.78;100406.43;2133906;81;32978;-64
2021/10/15 03:33:07;;;;;;;13.65;9.53;;;;;;;11.27;70.79;100402.02;2168711;81;30148;-64
2021/10/15 03:36:12;;;;;;;11.90;9.00;;;;;;;11.27;70.84;100404.70;2156620;81;27705;-64
2021/10/15 03:39:15;;;;;;;16.50;10.65;;;;;;;11.27;70.91;100399.33;2166674;81;28653;-64
2021/10/15 03:42:22;;;;;;;19.52;9.53;;;;;;;11.27;70.87;100394.45;2164597;81;31865;-65
2021/10/15 03:45:26;;;;;;;13.68;9.65;;;;;;;11.27;70.92;100397.13;2165365;81;33477;-64
2021/10/15 03:48:31;;;;;;;12.85;9.40;;;;;;;11.25;71.02;100402.10;2126156;82;29398;-65
2021/10/15 03:51:36;;;;;;;13.25;10.32;;;;;;;11.23;70.93;100403.99;2125413;81;27829;-65
2021/10/15 03:54:40;;;;;;;;;;;;;;;11.22;71.02;100408.11;2087408;83;28872;-65
2021/10/15 03:57:44;;;;;;;15.28;9.40;;;;;;;11.24;71.16;100400.85;2138400;82;31064;-66
2021/10/15 04:00:50;;;;;;;14.20;9.58;;;;;;;11.21;71.17;100395.64;2087179;83;33891;-66
2021/10/15 04:03:56;;;;;;;11.75;9.20;;;;;;;11.19;71.15;100396.19;2068144;84;30178;-65
2021/10/15 04:07:02;;;;;;;14.65;9.55;;;;;;;11.18;71.18;100398.47;2030695;84;27722;-65
2021/10/15 04:10:07;;;;;;;15.32;9.48;;;;;;;11.15;71.20;100388.78;2056762;85;28652;-64
2021/10/15 04:13:13;;;;;;;10.98;8.33;;;;;;;11.13;71.21;100391.12;2093811;83;31930;-65
2021/10/15 04:16:18;;;;;;;12.65;10.08;;;;;;;11.12;71.27;100394.75;2130218;81;33233;-65
2021/10/15 04:19:23;;;;;;;15.18;9.28;;;;;;;11.09;71.25;100392.61;2081745;83;29344;-65
2021/10/15 04:22:31;;;;;;;14.58;9.65;;;;;;;11.07;71.36;100388.28;2057825;84;27830;-65
2021/10/15 04:25:37;;;;;;;11.08;8.58;;;;;;;11.06;71.43;100389.23;2050680;84;29540;-65
2021/10/15 04:28:41;;;;;;;10.72;8.68;;;;;;;11.05;71.47;100394.19;2051896;84;31037;-66
2021/10/15 04:31:43;;;;;;;15.25;9.90;;;;;;;11.02;71.54;100384.50;2083081;83;33017;-65
2021/10/15 04:34:49;;;;;;;13.90;9.73;;;;;;;11.01;71.60;100385.44;2127901;81;29701;-65
2021/10/15 04:37:55;;;;;;;14.93;10.25;;;;;;;11.01;71.61;100386.78;2097583;81;27691;-65
2021/10/15 04:41:00;;;;;;;19.07;11.33;;;;;;;10.92;71.62;100362.65;2108740;82;28668;-65
2021/10/15 04:44:06;;;;;;;15.83;11.38;;;;;;;10.96;71.65;100367.86;2098535;82;32161;-66
2021/10/15 04:47:09;;;;;;;16.32;11.63;;;;;;;10.91;71.60;100363.59;2095775;82;33754;-65
2021/10/15 04:50:15;;;;;;;15.68;10.88;;;;;;;10.89;71.68;100362.80;2140716;81;29348;-65
2021/10/15 04:53:16;;;;;;;19.48;12.15;;;;;;;10.88;71.78;100357.03;2144777;81;27960;-64
2021/10/15 04:56:22;;;;;;;14.18;11.22;;;;;;;10.86;71.79;100361.60;2161548;81;28674;-65
2021/10/15 04:59:28;;;;;;;19.20;12.95;;;;;;;10.84;71.83;100356.78;2136485;81;31065;-64
2021/10/15 05:02:33;;;;;;;18.92;12.70;;;;;;;10.84;71.90;100354.59;2154300;81;33000;-66
2021/10/15 05:05:43;;;;;;;17.57;12.40;;;;;;;10.83;71.92;100354.20;2083643;83;29350;-64
2021/10/15 05:11:54;;;;;;;18.92;13.10;;;;;;;10.83;72.06;100346.16;2021403;87;28747;-65
2021/10/15 05:15:00;;;;;;;16.37;12.88;;;;;;;10.83;72.06;100348.84;2013855;86;32299;-65
2021/10/15 05:18:06;;;;;;;18.52;13.48;;;;;;;10.82;72.16;100345.30;2040225;85;33259;-65
2021/10/15 05:21:10;;;;;;;20.45;11.80;;;;;;;10.79;72.09;100339.61;2034231;86;30237;-64
2021/10/15 05:24:16;;;;;;;20.17;13.45;;;;;;;10.79;72.21;100340.09;2031755;85;27896;-64
2021/10/15 05:27:22;;;;;;;23.67;13.48;;;;;;;10.78;72.19;100342.37;2027085;85;28992;-66
2021/10/15 05:30:27;;;;;;;16.55;12.75;;;;;;;10.77;72.30;100336.13;2022000;84;31058;-65
2021/10/15 05:33:32;;;;;;;18.00;13.10;;;;;;;10.76;72.26;100347.79;2075190;84;33812;-65
2021/10/15 05:36:38;;;;;;;18.17;13.13;;;;;;;10.73;72.27;100339.05;2026654;85;29353;-64
2021/10/15 05:39:45;;;;;;;17.37;13.20;;;;;;;10.71;72.25;100335.12;2087353;83;27768;-64
2021/10/15 05:42:49;;;;;;;18.30;14.60;;;;;;;10.67;72.24;100328.17;2084308;83;28690;-64
2021/10/15 05:45:55;;;;;;;18.37;13.83;;;;;;;10.62;72.21;100334.22;2088721;83;32068;-65
2021/10/15 05:49:02;;;;;;;17.62;13.78;;;;;;;10.60;72.35;100326.72;2127843;81;32997;-64
2021/10/15 05:52:17;;;;;;;18.82;14.13;;;;;;;10.59;72.41;100329.03;2141769;81;29384;-66
2021/10/15 06:01:50;;;;;;;23.75;15.98;;;;;;;10.49;72.54;100324.59;2098142;83;31459;-65
2021/10/15 06:05:40;;;;;;;21.17;15.48;;;;;;;10.52;72.59;100322.23;2127071;82;33017;-65
2021/10/15 06:09:41;;;;;;;21.15;14.80;;;;;;;10.58;72.74;100324.13;2088381;83;29704;-65
2021/10/15 06:14:42;;;;;;;19.55;15.65;;;;;;;10.63;72.65;100322.10;2123927;81;28714;-65
2021/10/15 06:17:48;;;;;;;22.52;16.93;;;;;;;10.70;72.74;100325.80;2091588;82;31200;-66
2021/10/15 06:20:54;;;;;;;28.25;20.12;;;;;;;10.75;72.66;100325.98;2145310;81;33172;-66
2021/10/15 06:24:00;;;;;;;23.32;18.85;;;;;;;10.81;72.66;100322.58;2162150;81;29371;-65
2021/10/15 06:27:06;;;;;;;21.10;16.75;;;;;;;10.84;72.53;100323.28;2160073;81;27711;-65
2021/10/15 06:30:13;;;;;;;23.27;17.32;;;;;;;10.87;72.60;100324.97;2088816;83;28737;-64
2021/10/15 06:33:19;;;;;;;19.75;16.52;;;;;;;10.92;72.62;100325.61;2122793;81;31050;-65
2021/10/15 06:36:25;;;;;;;22.00;17.02;;;;;;;10.98;72.52;100323.09;2024178;85;33146;-65
2021/10/15 06:39:30;;;;;;;26.05;16.87;;;;;;;11.03;72.47;100321.90;2050527;83;29392;-65
2021/10/15 06:42:36;;;;;;;22.42;15.78;;;;;;;11.13;72.45;100320.07;2087302;82;27923;-65
2021/10/15 06:45:42;;;;;;;23.00;15.15;;;;;;;11.21;72.27;100319.22;2120387;82;28686;-66
2021/10/15 06:48:47;;;;;;;19.92;14.50;;;;;;;11.31;72.28;100317.77;2126616;82;31033;-65
2021/10/15 06:51:51;;;;;;;17.05;13.72;;;;;;;11.46;72.15;100317.91;2130784;81;33018;-65
2021/10/15 06:54:57;;;;;;;18.85;15.03;;;;;;;11.61;71.93;100314.41;2129891;82;30142;-65
2021/10/15 06:58:04;;;;;;;20.20;14.68;;;;;;;11.78;71.96;100310.83;2141172;81;27640;-65
2021/10/15 07:01:08;;;;;;;20.68;15.05;;;;;;;11.95;71.74;100312.56;2150917;81;28820;-65
2021/10/15 07:04:13;;;;;;;21.93;14.60;;;;;;;12.10;71.41;100317.61;2163436;81;32063;-65
2021/10/15 07:07:18;;;;;;;;;;;;;;;12.27;71.33;100317.98;2166052;81;33959;-65
2021/10/15 07:10:23;;;;;;;19.12;14.47;;;;;;;12.58;71.15;100310.84;2122373;81;29384;-64
2021/10/15 07:13:29;;;;;;;23.25;14.25;;;;;;;12.91;70.87;100301.76;2118134;82;27759;-64
2021/10/15 07:16:35;;;;;;;17.77;13.18;;;;;;;13.22;70.50;100301.75;2107575;82;29301;-65
2021/10/15 07:19:40;;;;;;;17.52;14.13;;;;;;;13.43;69.65;100302.78;2165433;81;31879;-65
2021/10/15 07:22:46;;;;;;;16.05;13.32;;;;;;;13.61;69.49;100296.72;2162869;81;33793;-65
2021/10/15 07:25:51;;;;;;;17.05;12.93;;;;;;;13.75;68.99;100294.02;2108625;83;28770;-65
2021/10/15 07:28:56;;;;;;;17.05;12.43;;;;;;;13.97;68.57;100290.86;2093174;82;27683;-65
2021/10/15 07:32:00;;;;;;;14.18;12.13;;;;;;;14.21;68.43;100283.98;2102506;83;28676;-65
2021/10/15 07:35:07;;;;;;;14.90;11.45;;;;;;;14.28;67.52;100286.63;2104150;83;31081;-65
2021/10/15 07:38:10;;;;;;;16.07;11.90;;;;;;;14.40;67.71;100284.97;2162804;81;32974;-65
2021/10/15 07:41:13;;;;;;;14.68;11.20;;;;;;;14.55;67.15;100281.25;2129284;82;30191;-65
2021/10/15 07:44:19;;;;;;;15.20;11.43;;;;;;;14.63;65.88;100272.65;2110928;82;27838;-65
2021/10/15 07:47:28;;;;;;;13.62;11.30;;;;;;;14.81;66.73;100280.50;2111271;83;28687;-66
2021/10/15 07:50:32;;;;;;;13.83;11.75;;;;;;;14.88;66.04;100278.63;2101336;81;31104;-65
2021/10/15 07:53:37;;;;;;;14.78;11.38;;;;;;;14.83;65.53;100285.31;2164426;81;33001;-67
2021/10/15 07:56:42;;;;;;;13.48;11.08;;;;;;;14.74;65.23;100284.09;2165777;81;30100;-66
2021/10/15 07:59:44;;;;;;;15.58;11.18;;;;;;;14.76;65.62;100281.28;2167054;81;27632;-69
2021/10/15 08:02:50;;;;;;;16.85;11.15;;;;;;;14.78;65.17;100275.30;2121416;82;29859;-66
2021/10/15 08:05:55;;;;;;;15.40;11.75;;;;;;;14.84;65.12;100266.81;2119152;82;31055;-65
2021/10/15 08:08:57;;;;;;;17.27;11.00;;;;;;;14.86;64.98;100261.68;2112011;82;33004;-64
2021/10/15 08:12:03;;;;;;;14.38;10.45;;;;;;;14.98;64.48;100265.38;2135900;82;30549;-65
2021/10/15 08:15:10;;;;;;;12.78;9.20;;;;;;;15.09;64.62;100260.59;2106290;81;28196;-66
2021/10/15 08:18:16;;;;;;;12.85;10.23;;;;;;;15.31;64.60;100261.30;2114809;83;28840;-66
2021/10/15 08:21:22;;;;;;;11.30;9.28;;;;;;;15.43;64.32;100259.58;2094734;83;31680;-66
2021/10/15 08:24:28;;;;;;;13.88;8.35;;;;;;;15.54;63.90;100254.77;2100363;83;33161;-66
2021/10/15 08:27:34;;;;;;;10.70;8.60;;;;;;;15.62;63.87;100256.92;2088498;82;29957;-65
2021/10/15 08:30:41;;;;;;;10.70;8.83;;;;;;;15.70;63.49;100259.92;2059693;84;27719;-65
2021/10/15 08:33:47;;;;;;;12.00;8.08;;;;;;;15.80;63.45;100257.42;2120127;83;28666;-65
2021/10/15 08:36:53;;;;;;;10.48;7.78;;;;;;;15.83;62.47;100234.71;2118660;83;31952;-65
2021/10/15 08:40:01;;;;;;;8.95;7.47;;;;;;;15.83;62.47;100234.71;2114932;82;32990;-65
2021/10/15 08:43:03;;;;;;;9.55;8.35;;;;;;;16.03;62.65;100251.72;2101527;82;29393;-65
2021/10/15 08:46:09;;;;;;;7.72;6.83;;;;;;;16.08;61.73;100248.20;2158724;81;27682;-64
2021/10/15 08:49:13;;;;;;;10.25;6.67;;;;;;;16.17;61.89;100235.84;2162991;81;29526;-65
2021/10/15 08:52:19;;;;;;;9.15;6.40;;;;;;;16.27;61.50;100237.84;2167333;81;32209;-65
2021/10/15 08:55:25;;;;;;;9.20;6.80;;;;;;;16.36;61.60;100225.86;2114616;82;32999;-67
2021/10/15 08:58:47;;;;;;;8.88;6.62;;;;;;;16.50;61.41;100223.95;2114949;83;29444;-66
2021/10/15 09:01:56;;;;;;;7.83;5.75;;;;;;;16.58;61.07;100221.53;2113347;83;27842;-66
2021/10/15 09:05:01;;;;;;;7.80;5.92;;;;;;;16.69;59.91;100223.42;2112669;82;28786;-67
2021/10/15 09:08:05;;;;;;;7.80;5.58;;;;;;;16.79;60.10;100216.31;2143091;81;31142;-66
2021/10/15 09:11:27;;;;;;;6.03;5.35;;;;;;;16.92;59.63;100215.35;2164159;81;33825;-66
2021/10/15 09:14:34;;;;;;;6.12;5.50;;;;;;;17.01;58.96;100211.47;2164417;81;29363;-64
2021/10/15 09:17:51;;;;;;;6.67;5.85;;;;;;;17.14;58.89;100212.73;2126218;81;27878;-65
2021/10/15 09:20:57;;;;;;;6.45;5.62;;;;;;;17.28;58.65;100217.06;2087292;83;28852;-66
2021/10/15 09:24:02;;;;;;;11.43;5.42;;;;;;;17.40;58.38;100212.49;2159853;81;31050;-65
2021/10/15 09:27:28;;;;;;;6.70;5.50;;;;;;;17.52;58.11;100218.78;2152810;81;33015;-65
2021/10/15 09:30:32;;;;;;;;;;;;;;;17.70;57.83;100215.57;2103800;82;30117;-66
2021/10/15 09:33:35;;;;;;;7.55;5.67;;;;;;;17.87;57.47;100207.44;2109659;82;28314;-66
2021/10/15 09:36:44;;;;;;;7.08;5.37;;;;;;;17.95;56.46;100205.45;2101996;83;29542;-65
2021/10/15 09:39:51;;;;;;;6.28;5.10;;;;;;;18.01;56.79;100203.60;2140129;81;31523;-70
2021/10/15 09:42:58;;;;;;;5.42;4.92;;;;;;;18.01;56.34;100207.66;2162793;81;32588;-66
2021/10/15 09:46:04;;;;;;;5.60;4.80;;;;;;;17.97;56.15;100198.91;2161109;81;28722;-66
2021/10/15 09:49:10;;;;;;;6.33;5.47;;;;;;;17.88;55.93;100201.88;2128189;81;28014;-65
2021/10/15 09:52:26;;;;;;;5.42;4.90;;;;;;;17.75;56.04;100203.88;2113125;82;28631;-68
2021/10/15 09:55:34;;;;;;;7.90;5.15;;;;;;;17.67;55.69;100195.02;2095479;82;31898;-66
2021/10/15 09:58:37;;;;;;;6.53;5.85;;;;;;;17.53;55.51;100196.63;2074846;84;33115;-66
2021/10/15 10:01:43;;;;;;;6.50;5.65;;;;;;;17.42;55.46;100193.44;2135509;81;29354;-67
2021/10/15 10:04:49;;;;;;;6.85;5.72;;;;;;;17.30;55.63;100193.91;2118825;82;28078;-66
2021/10/15 10:07:56;;;;;;;7.12;5.83;;;;;;;17.24;55.63;100188.98;2039031;84;28746;-65
2021/10/15 10:11:01;;;;;;;7.53;5.80;;;;;;;17.17;55.65;100181.84;2109319;82;31026;-66
2021/10/15 10:14:07;;;;;;;6.70;6.03;;;;;;;17.14;55.68;100176.66;2139432;81;34333;-69
2021/10/15 10:17:15;;;;;;;7.03;6.08;;;;;;;17.12;55.88;100163.77;2164221;81;29347;-68
2021/10/15 10:20:26;;;;;;;7.55;6.58;;;;;;;17.13;55.71;100164.11;2164489;81;27691;-67
2021/10/15 10:23:50;;;;;;;8.55;6.12;;;;;;;17.12;55.43;100164.62;2142104;81;29670;-67
2021/10/15 10:26:57;;;;;;;7.58;6.78;;;;;;;17.07;55.19;100160.05;2118698;82;30453;-67
2021/10/15 10:30:00;;;;;;;12.98;7.47;;;;;;;16.98;54.83;100157.58;2115072;82;33759;-68
2021/10/15 10:33:06;;;;;;;7.62;5.95;;;;;;;16.93;55.24;100152.13;2086004;82;30227;-67
2021/10/15 10:36:16;;;;;;;6.55;5.72;;;;;;;16.75;55.03;100114.72;2167652;81;27657;-67
2021/10/15 10:39:26;;;;;;;6.58;5.70;;;;;;;16.94;55.40;100141.68;2166149;81;29521;-67
2021/10/15 10:42:32;;;;;;;7.50;5.58;;;;;;;16.96;54.89;100137.05;2134792;81;31852;-68
2021/10/15 10:45:38;;;;;;;5.92;5.00;;;;;;;17.00;55.01;100134.48;2097249;82;32962;-68
2021/10/15 10:48:58;;;;;;;6.33;5.05;;;;;;;17.00;54.48;100129.06;2096735;82;29970;-68
2021/10/15 10:52:15;;;;;;;8.08;5.60;;;;;;;16.96;54.29;100131.63;2101747;83;27703;-68
2021/10/15 10:55:46;;;;;;;7.10;4.95;;;;;;;16.98;54.38;100128.32;2104630;82;28695;-67
2021/10/15 10:58:52;;;;;;;7.62;4.60;;;;;;;16.99;54.47;100130.89;2111013;82;31225;-68
2021/10/15 11:02:16;;;;;;;7.65;5.67;;;;;;;17.05;54.42;100122.77;2092455;83;32973;-69
2021/10/15 11:05:36;;;;;;;9.08;5.15;;;;;;;17.06;54.36;100125.00;2165480;81;29398;-68
2021/10/15 11:08:42;;;;;;;6.90;4.45;;;;;;;17.07;54.08;100111.33;2162984;81;27726;-68
2021/10/15 11:11:47;;;;;;;6.83;4.33;;;;;;;17.15;54.21;100114.30;2153238;81;28768;-67
2021/10/15 11:14:59;;;;;;;5.72;4.50;;;;;;;17.24;53.58;100111.34;2128462;82;31854;-68
2021/10/15 11:18:06;;;;;;;6.08;5.47;;;;;;;17.34;53.96;100112.81;2121039;81;33772;-68
2021/10/15 11:21:12;;;;;;;4.85;3.90;;;;;;;17.49;53.76;100110.68;2128871;82;29381;-68
2021/10/15 11:24:15;;;;;;;7.40;4.42;;;;;;;17.70;53.74;100104.48;2164796;81;27841;-69
2021/10/15 11:27:19;;;;;;;5.30;3.98;;;;;;;17.89;53.30;100094.31;2164578;81;28664;-70
2021/10/15 11:30:27;;;;;;;5.17;3.95;;;;;;;17.96;53.39;100094.18;2121414;81;32182;-69
2021/10/15 11:33:36;;;;;;;5.25;3.87;;;;;;;18.01;52.47;100089.75;2048620;83;32979;-70
2021/10/15 11:36:41;;;;;;;7.17;4.33;;;;;;;18.05;52.84;100090.72;2053119;82;29340;-66
2021/10/15 11:39:46;;;;;;;8.53;4.35;;;;;;;18.15;53.22;100086.73;2103234;82;27704;-68
2021/10/15 11:42:54;;;;;;;5.50;4.08;;;;;;;18.24;52.81;100084.23;2127055;82;29313;-67
2021/10/15 11:46:23;;;;;;;4.12;3.70;;;;;;;18.19;52.54;100088.70;2135429;81;30666;-68
2021/10/15 11:49:24;;;;;;;5.60;3.92;;;;;;;18.27;52.98;100083.98;2121295;82;33061;-66
2021/10/15 11:52:26;;;;;;;5.40;4.42;;;;;;;18.32;51.75;100085.30;2116528;81;29332;-67
2021/10/15 11:55:38;;;;;;;4.60;4.20;;;;;;;18.31;52.22;100076.80;2063227;84;27662;-65
2021/10/15 11:58:47;;;;;;;5.22;4.45;;;;;;;18.31;52.41;100074.09;2052246;84;29591;-66
2021/10/15 12:01:51;;;;;;;6.58;5.10;;;;;;;18.42;52.04;100075.88;2073718;83;30482;-66
2021/10/15 12:05:00;;;;;;;6.28;5.03;;;;;;;18.46;52.18;100069.17;2112053;83;33025;-67
2021/10/15 12:08:02;;;;;;;5.72;4.08;;;;;;;18.53;52.32;100066.81;2081713;84;30199;-68
2021/10/15 12:11:09;;;;;;;5.72;4.35;;;;;;;18.47;51.87;100064.11;2075651;83;27697;-66
2021/10/15 12:14:32;;;;;;;4.33;3.92;;;;;;;18.45;51.69;100055.75;2092480;83;28810;-65
2021/10/15 12:17:37;;;;;;;4.70;3.72;;;;;;;18.43;51.91;100041.46;2087703;82;31921;-67
2021/10/15 12:20:43;;;;;;;6.65;3.52;;;;;;;18.38;52.09;100041.87;2081833;83;34180;-65
2021/10/15 12:23:56;;;;;;;6.90;3.70;;;;;;;18.32;51.63;100045.10;2087846;83;29502;-66
2021/10/15 12:27:14;;;;;;;4.97;3.58;;;;;;;18.15;51.43;100043.86;2111180;82;27699;-66
2021/10/15 12:30:22;;;;;;;4.80;3.90;;;;;;;18.00;51.90;100046.89;2109096;82;28855;-66
2021/10/15 12:33:28;;;;;;;4.85;3.12;;;;;;;17.91;52.33;100044.91;2048555;85;31889;-66
2021/10/15 12:36:34;;;;;;;2.98;2.72;;;;;;;17.87;52.33;100048.90;2084578;84;33612;-66
2021/10/15 12:39:41;;;;;;;5.30;3.27;;;;;;;17.86;52.41;100039.89;2075625;84;30190;-66
2021/10/15 12:42:49;;;;;;;5.00;3.33;;;;;;;17.83;52.48;100035.23;2079084;83;27713;-69
2021/10/15 12:45:55;;;;;;;5.15;3.55;;;;;;;17.77;52.52;100040.17;2147699;81;28679;-66
2021/10/15 12:49:07;;;;;;;4.47;3.17;;;;;;;17.75;52.52;100042.66;2134087;82;31087;-68
2021/10/15 12:52:30;;;;;;;4.42;3.37;;;;;;;17.72;52.93;100040.20;2129668;82;32847;-65
2021/10/15 12:55:36;;;;;;;4.97;2.80;;;;;;;17.75;53.11;100035.38;2028629;86;30148;-68
2021/10/15 12:58:46;;;;;;;4.92;3.47;;;;;;;17.83;52.75;100025.75;2024349;86;27925;-68
2021/10/15 13:01:55;;;;;;;3.55;3.25;;;;;;;17.86;52.86;100025.50;2023656;86;29240;-67
2021/10/15 13:05:03;;;;;;;3.80;2.83;;;;;;;17.90;52.66;100026.45;2025428;86;31254;-66
2021/10/15 13:08:06;;;;;;;7.37;3.90;;;;;;;17.97;52.76;100020.02;2018786;86;33060;-66
2021/10/15 13:11:11;;;;;;;3.22;2.58;;;;;;;17.98;52.62;100019.05;2026063;86;30211;-66
2021/10/15 13:14:15;;;;;;;5.72;2.52;;;;;;;17.95;52.55;100019.79;2014722;85;27926;-66
2021/10/15 13:17:20;;;;;;;4.10;2.55;;;;;;;17.84;52.08;100009.34;2019783;86;33125;-67
2021/10/15 13:20:26;;;;;;;2.80;2.52;;;;;;;17.74;52.13;100019.27;2017162;86;31049;-67
2021/10/15 13:23:31;;;;;;;3.77;2.58;;;;;;;17.63;52.24;100022.88;2016151;85;33170;-67
2021/10/15 13:26:37;;;;;;;3.02;2.65;;;;;;;17.51;52.35;100018.48;2027201;85;29330;-66
2021/10/15 13:29:42;;;;;;;4.85;3.37;;;;;;;17.38;52.06;100014.58;2042861;84;27784;-71
2021/10/15 13:32:49;;;;;;;4.55;2.70;;;;;;;17.17;52.32;100008.59;2049370;85;29547;-67
2021/10/15 13:35:58;;;;;;;5.10;2.90;;;;;;;17.07;52.45;100002.22;2062511;84;31079;-68
2021/10/15 13:38:58;;;;;;;3.45;2.95;;;;;;;16.97;52.74;100004.81;2062414;83;33808;-70
2021/10/15 13:42:15;;;;;;;4.08;2.77;;;;;;;16.87;52.72;100001.96;2133451;81;29365;-67
2021/10/15 13:52:00;;;;;;;13.72;7.90;;;;;;;16.76;53.24;99996.06;2140151;82;31385;-66
2021/10/15 13:55:07;;;;;;;6.87;5.47;;;;;;;16.67;53.12;99988.20;2069101;83;33008;-66
2021/10/15 13:58:21;;;;;;;5.83;4.00;;;;;;;16.50;53.64;99986.86;2099441;82;30122;-67
2021/10/15 14:01:33;;;;;;;5.83;3.87;;;;;;;16.41;53.77;99990.28;2110333;83;27843;-70
2021/10/15 14:07:35;;;;;;;5.55;3.35;;;;;;;16.33;53.91;99988.69;2112121;82;31068;-68
2021/10/15 14:10:42;;;;;;;6.60;3.90;;;;;;;16.30;54.30;99978.95;2112130;83;33140;-64
2021/10/15 14:13:48;;;;;;;6.97;4.53;;;;;;;16.27;54.31;99979.70;2092600;83;29596;-69
2021/10/15 14:16:53;;;;;;;19.30;4.45;;;;;;;16.19;54.42;99975.78;2080660;83;27813;-72
2021/10/15 14:19:59;;;;;;;7.67;5.20;;;;;;;16.08;54.35;99976.61;2061039;83;28691;-66
2021/10/15 14:23:05;;;;;;;6.20;4.10;;;;;;;16.00;54.55;99982.24;2093715;83;31029;-63
2021/10/15 14:26:11;;;;;;;12.18;6.15;;;;;;;15.90;54.66;99983.44;2091719;83;33651;-65
2021/10/15 14:29:13;;;;;;;9.55;6.17;;;;;;;15.84;54.92;99983.40;2095193;82;30048;-75
2021/10/15 14:32:17;;;;;;;10.98;8.25;;;;;;;15.77;55.06;99984.36;2087330;83;27755;-67
2021/10/15 14:35:21;;;;;;;7.62;5.70;;;;;;;15.73;55.14;99986.92;2128840;82;28719;-66
2021/10/15 14:38:27;;;;;;;8.20;5.08;;;;;;;15.68;55.33;99985.05;2105155;83;31107;-68
2021/10/15 14:41:34;;;;;;;8.10;4.17;;;;;;;15.65;55.55;99983.45;2101336;83;32995;-66
2021/10/15 14:44:39;;;;;;;5.60;4.35;;;;;;;15.61;55.50;99984.66;2094230;83;29444;-65